createdAt,value
2023-05-01T00:01:38.043Z,23.23
2023-05-01T00:04:06.259Z,23.25
2023-05-01T00:06:34.431Z,23.23
2023-05-01T00:09:01.880Z,23.24
2023-05-01T00:11:29.610Z,23.25
2023-05-01T00:13:57.080Z,23.26
2023-05-01T00:16:24.540Z,23.24
2023-05-01T00:18:52.628Z,23.24
2023-05-01T00:21:21.525Z,23.24
2023-05-01T00:23:49.021Z,23.23
2023-05-01T00:26:16.811Z,23.22
2023-05-01T00:28:45.904Z,23.23
2023-05-01T00:31:13.431Z,23.24
2023-05-01T00:33:41.152Z,23.22
2023-05-01T00:36:09.230Z,23.22
2023-05-01T00:38:36.650Z,23.22
2023-05-01T00:41:04.442Z,23.21
2023-05-01T00:43:32.400Z,23.22
2023-05-01T00:45:59.844Z,23.20
2023-05-01T00:48:27.691Z,23.21
2023-05-01T00:50:56.014Z,23.20
2023-05-01T00:53:24.284Z,23.20
2023-05-01T00:55:52.354Z,23.21
2023-05-01T00:58:19.911Z,23.20
2023-05-01T01:00:47.463Z,23.20
2023-05-01T01:03:15.278Z,23.20
2023-05-01T01:05:45.081Z,23.20
2023-05-01T01:08:21.932Z,23.20
2023-05-01T01:10:58.848Z,23.21
2023-05-01T01:13:35.951Z,23.18
2023-05-01T01:16:19.096Z,23.18
2023-05-01T01:19:08.310Z,23.17
2023-05-01T01:21:41.369Z,23.19
2023-05-01T01:24:30.889Z,23.16
2023-05-01T01:27:20.182Z,23.15
2023-05-01T01:29:59.634Z,23.17
2023-05-01T01:32:55.432Z,23.17
2023-05-01T01:35:26.373Z,23.18
2023-05-01T01:38:16.717Z,23.14
2023-05-01T01:41:06.485Z,23.15
2023-05-01T01:43:38.456Z,23.14
2023-05-01T01:46:06.992Z,23.22
2023-05-01T01:48:36.355Z,23.13
2023-05-01T01:51:09.331Z,23.11
2023-05-01T01:53:37.700Z,23.11
2023-05-01T01:56:06.327Z,23.11
2023-05-01T01:58:35.101Z,23.11
2023-05-01T02:01:02.808Z,23.12
2023-05-01T02:03:31.054Z,23.12
2023-05-01T02:05:58.718Z,23.10
2023-05-01T02:08:26.176Z,23.11
2023-05-01T02:10:58.843Z,23.11
2023-05-01T02:13:29.293Z,23.12
2023-05-01T02:16:00.636Z,23.11
2023-05-01T02:18:30.597Z,23.11
2023-05-01T02:20:59.031Z,23.11
2023-05-01T02:23:27.785Z,23.12
2023-05-01T02:25:55.600Z,23.10
2023-05-01T02:28:23.580Z,23.10
2023-05-01T02:30:51.006Z,23.09
2023-05-01T02:33:18.808Z,23.11
2023-05-01T02:35:47.476Z,23.10
2023-05-01T02:38:16.809Z,23.11
2023-05-01T02:40:47.008Z,23.11
2023-05-01T02:43:16.369Z,23.11
2023-05-01T02:45:45.081Z,23.11
2023-05-01T02:48:14.034Z,23.09
2023-05-01T02:50:44.328Z,23.09
2023-05-01T02:53:12.302Z,23.11
2023-05-01T02:55:40.471Z,23.09
2023-05-01T02:58:08.203Z,23.10
2023-05-01T03:00:35.903Z,23.09
2023-05-01T03:03:03.566Z,23.08
2023-05-01T03:05:31.042Z,23.09
2023-05-01T03:07:58.737Z,23.08
2023-05-01T03:10:26.194Z,23.08
2023-05-01T03:12:53.635Z,23.07
2023-05-01T03:15:21.422Z,23.07
2023-05-01T03:17:48.864Z,23.07
2023-05-01T03:20:16.343Z,23.07
2023-05-01T03:22:45.225Z,23.08
2023-05-01T03:25:13.192Z,23.08
2023-05-01T03:27:40.945Z,23.07
2023-05-01T03:30:10.187Z,23.08
2023-05-01T03:32:38.209Z,23.06
2023-05-01T03:35:06.458Z,23.07
2023-05-01T03:37:34.247Z,23.08
2023-05-01T03:40:01.856Z,23.09
2023-05-01T03:42:31.617Z,23.09
2023-05-01T03:44:59.891Z,23.09
2023-05-01T03:47:29.009Z,23.09
2023-05-01T03:49:56.916Z,23.10
2023-05-01T03:52:24.966Z,23.09
2023-05-01T03:54:52.549Z,23.08
2023-05-01T03:57:23.422Z,23.08
2023-05-01T03:59:51.318Z,23.08
2023-05-01T04:02:19.738Z,23.07
2023-05-01T04:04:47.480Z,23.07
2023-05-01T04:07:15.258Z,23.07
2023-05-01T04:09:43.961Z,23.06
2023-05-01T04:12:12.080Z,23.07
2023-05-01T04:14:39.610Z,23.07
2023-05-01T04:17:07.129Z,23.06
2023-05-01T04:19:35.282Z,23.06
2023-05-01T04:22:02.997Z,23.06
2023-05-01T04:24:31.266Z,23.06
2023-05-01T04:26:58.995Z,23.05
2023-05-01T04:29:26.417Z,23.05
2023-05-01T04:31:53.953Z,23.04
2023-05-01T04:34:21.653Z,23.04
2023-05-01T04:36:49.161Z,23.04
2023-05-01T04:39:17.149Z,23.03
2023-05-01T04:41:44.877Z,23.04
2023-05-01T04:44:12.301Z,23.04
2023-05-01T04:46:39.830Z,23.05
2023-05-01T04:49:07.970Z,23.03
2023-05-01T04:51:36.196Z,23.05
2023-05-01T04:54:04.795Z,23.06
2023-05-01T04:56:34.791Z,23.05
2023-05-01T04:59:02.233Z,23.05
2023-05-01T05:01:30.646Z,23.02
2023-05-01T05:03:58.630Z,23.03
2023-05-01T05:06:26.406Z,23.03
2023-05-01T05:08:54.187Z,23.03
2023-05-01T05:11:21.895Z,23.03
2023-05-01T05:13:49.366Z,23.01
2023-05-01T05:16:17.482Z,23.02
2023-05-01T05:18:45.265Z,23.01
2023-05-01T05:21:12.718Z,23.01
2023-05-01T05:23:41.343Z,23.02
2023-05-01T05:26:08.990Z,23.04
2023-05-01T05:28:36.441Z,23.04
2023-05-01T05:31:04.700Z,23.04
2023-05-01T05:33:32.655Z,23.04
2023-05-01T05:36:00.603Z,23.04
2023-05-01T05:38:28.708Z,23.05
2023-05-01T05:40:56.602Z,23.06
2023-05-01T05:43:26.646Z,23.05
2023-05-01T05:45:57.614Z,23.05
2023-05-01T05:48:25.494Z,23.05
2023-05-01T05:50:52.951Z,23.06
2023-05-01T05:53:21.237Z,23.06
2023-05-01T05:55:49.592Z,23.06
2023-05-01T05:58:20.143Z,23.06
2023-05-01T06:00:48.583Z,23.06
2023-05-01T06:03:16.711Z,23.06
2023-05-01T06:05:44.332Z,23.07
2023-05-01T06:08:13.964Z,23.06
2023-05-01T06:10:43.153Z,23.06
2023-05-01T06:13:14.193Z,23.07
2023-05-01T06:15:43.775Z,23.06
2023-05-01T06:18:11.956Z,23.06
2023-05-01T06:20:39.818Z,23.07
2023-05-01T06:23:08.571Z,23.07
2023-05-01T06:25:38.275Z,23.07
2023-05-01T06:28:05.858Z,23.08
2023-05-01T06:30:34.007Z,23.07
2023-05-01T06:33:02.261Z,23.08
2023-05-01T06:35:29.883Z,23.07
2023-05-01T06:37:57.661Z,23.07
2023-05-01T06:40:25.117Z,23.09
2023-05-01T06:42:52.929Z,23.09
2023-05-01T06:45:23.719Z,23.09
2023-05-01T06:47:51.134Z,23.13
2023-05-01T06:50:18.626Z,23.18
2023-05-01T06:52:46.495Z,23.19
2023-05-01T06:55:14.004Z,23.17
2023-05-01T06:57:42.854Z,23.18
2023-05-01T07:00:11.260Z,23.19
2023-05-01T07:02:38.830Z,23.20
2023-05-01T07:05:06.727Z,23.21
2023-05-01T07:07:34.991Z,23.21
2023-05-01T07:10:02.440Z,23.22
2023-05-01T07:12:29.851Z,23.21
2023-05-01T07:14:57.618Z,23.22
2023-05-01T07:17:26.458Z,23.22
2023-05-01T07:19:53.915Z,23.23
2023-05-01T07:22:21.679Z,23.23
2023-05-01T07:24:49.150Z,23.22
2023-05-01T07:27:17.187Z,23.20
2023-05-01T07:29:44.902Z,23.17
2023-05-01T07:32:12.478Z,23.15
2023-05-01T07:34:40.044Z,23.13
2023-05-01T07:37:07.906Z,23.11
2023-05-01T07:39:35.308Z,23.08
2023-05-01T07:42:02.702Z,23.07
2023-05-01T07:44:30.401Z,23.06
2023-05-01T07:47:03.660Z,23.05
2023-05-01T07:49:37.132Z,23.05
2023-05-01T07:52:05.630Z,23.05
2023-05-01T07:54:33.776Z,23.05
2023-05-01T07:57:02.132Z,23.04
2023-05-01T07:59:29.574Z,23.04
2023-05-01T08:01:57.444Z,23.04
2023-05-01T08:04:26.912Z,23.03
2023-05-01T08:06:54.445Z,23.03
2023-05-01T08:09:22.029Z,23.03
2023-05-01T08:11:50.240Z,23.03
2023-05-01T08:14:18.405Z,23.03
2023-05-01T08:16:45.961Z,23.02
2023-05-01T08:19:13.689Z,23.01
2023-05-01T08:21:41.098Z,23.01
2023-05-01T08:24:09.344Z,23.00
2023-05-01T08:26:37.389Z,23.00
2023-05-01T08:29:04.923Z,22.99
2023-05-01T08:31:32.354Z,22.98
2023-05-01T08:34:00.158Z,22.98
2023-05-01T08:36:28.156Z,22.97
2023-05-01T08:38:55.567Z,22.95
2023-05-01T08:41:26.213Z,22.94
2023-05-01T08:43:53.682Z,22.93
2023-05-01T08:46:36.562Z,22.93
2023-05-01T08:49:05.481Z,22.93
2023-05-01T08:51:33.394Z,22.94
2023-05-01T08:54:02.137Z,22.92
2023-05-01T08:56:29.971Z,22.91
2023-05-01T08:58:58.484Z,22.91
2023-05-01T09:01:26.455Z,22.92
2023-05-01T09:03:54.206Z,22.91
2023-05-01T09:06:21.788Z,22.90
2023-05-01T09:08:49.245Z,22.90
2023-05-01T09:11:17.140Z,22.90
2023-05-01T09:13:44.692Z,22.91
2023-05-01T09:16:12.171Z,22.90
2023-05-01T09:18:41.198Z,22.90
2023-05-01T09:21:08.728Z,22.88
2023-05-01T09:23:37.618Z,22.88
2023-05-01T09:26:06.033Z,22.90
2023-05-01T09:28:44.952Z,22.90
2023-05-01T09:31:32.806Z,22.90
2023-05-01T09:34:03.979Z,22.92
2023-05-01T09:36:33.106Z,22.89
2023-05-01T09:39:00.912Z,22.88
2023-05-01T09:41:28.705Z,22.89
2023-05-01T09:43:56.930Z,22.88
2023-05-01T09:46:25.136Z,22.88
2023-05-01T09:48:58.494Z,22.88
2023-05-01T09:51:33.090Z,22.90
2023-05-01T09:54:01.922Z,22.88
2023-05-01T09:56:31.743Z,22.88
2023-05-01T09:59:14.016Z,22.87
2023-05-01T10:01:43.342Z,22.89
2023-05-01T10:04:11.649Z,22.88
2023-05-01T10:06:39.493Z,22.88
2023-05-01T10:09:10.872Z,22.88
2023-05-01T10:11:57.873Z,22.88
2023-05-01T10:14:27.156Z,22.90
2023-05-01T10:16:56.769Z,22.89
2023-05-01T10:19:24.292Z,22.89
2023-05-01T10:21:52.562Z,22.89
2023-05-01T10:24:20.475Z,22.88
2023-05-01T10:26:51.085Z,22.87
2023-05-01T10:29:20.053Z,22.86
2023-05-01T10:31:48.449Z,22.85
2023-05-01T10:34:17.642Z,22.87
2023-05-01T10:36:58.955Z,22.87
2023-05-01T10:39:31.458Z,22.87
2023-05-01T10:42:04.453Z,22.86
2023-05-01T10:44:32.533Z,22.86
2023-05-01T10:46:59.910Z,22.86
2023-05-01T10:50:04.391Z,22.87
2023-05-01T10:52:54.835Z,22.89
2023-05-01T10:55:38.686Z,22.88
2023-05-01T10:58:06.380Z,22.88
2023-05-01T11:00:34.427Z,22.87
2023-05-01T11:03:23.763Z,22.86
2023-05-01T11:06:00.923Z,22.88
2023-05-01T11:08:32.476Z,22.88
2023-05-01T11:11:21.948Z,22.87
2023-05-01T11:14:01.981Z,22.90
2023-05-01T11:16:42.165Z,22.90
2023-05-01T11:19:12.305Z,22.98
2023-05-01T11:21:41.938Z,22.91
2023-05-01T11:24:09.641Z,22.88
2023-05-01T11:26:40.766Z,22.89
2023-05-01T11:29:10.530Z,22.89
2023-05-01T11:31:38.584Z,22.88
2023-05-01T11:34:07.122Z,22.89
2023-05-01T11:36:51.179Z,22.88
2023-05-01T11:39:18.914Z,22.91
2023-05-01T11:41:47.084Z,22.89
2023-05-01T11:44:17.799Z,22.88
2023-05-01T11:46:45.267Z,22.90
2023-05-01T11:49:13.007Z,22.89
2023-05-01T11:51:40.687Z,22.89
2023-05-01T11:54:15.526Z,22.89
2023-05-01T11:56:43.576Z,22.89
2023-05-01T11:59:18.943Z,22.90
2023-05-01T12:01:46.784Z,22.88
2023-05-01T12:04:29.722Z,22.88
2023-05-01T12:06:59.256Z,22.90
2023-05-01T12:09:27.087Z,22.89
2023-05-01T12:11:54.494Z,22.89
2023-05-01T12:14:22.115Z,22.89
2023-05-01T12:16:49.984Z,22.89
2023-05-01T12:19:36.249Z,22.89
2023-05-01T12:22:09.926Z,22.88
2023-05-01T12:24:37.707Z,22.88
2023-05-01T12:27:07.229Z,22.89
2023-05-01T12:29:41.628Z,22.88
2023-05-01T12:32:09.358Z,22.92
2023-05-01T12:34:36.977Z,22.90
2023-05-01T12:37:05.424Z,22.89
2023-05-01T12:39:40.499Z,22.91
2023-05-01T12:42:15.016Z,22.92
2023-05-01T12:44:43.245Z,22.92
2023-05-01T12:47:10.698Z,22.91
2023-05-01T12:49:38.078Z,22.91
2023-05-01T12:52:07.412Z,22.91
2023-05-01T12:54:39.059Z,22.90
2023-05-01T12:57:11.798Z,22.91
2023-05-01T12:59:39.918Z,22.92
2023-05-01T13:02:10.896Z,22.90
2023-05-01T13:04:38.989Z,22.90
2023-05-01T13:07:13.086Z,22.89
2023-05-01T13:09:40.993Z,22.90
2023-05-01T13:12:09.846Z,22.91
2023-05-01T13:14:40.961Z,22.91
2023-05-01T13:17:09.663Z,22.89
2023-05-01T13:19:37.943Z,22.90
2023-05-01T13:22:06.202Z,22.89
2023-05-01T13:24:37.004Z,22.90
2023-05-01T13:27:05.752Z,22.89
2023-05-01T13:29:33.221Z,22.90
2023-05-01T13:32:01.169Z,22.91
2023-05-01T13:34:33.084Z,22.90
2023-05-01T13:37:01.413Z,22.90
2023-05-01T13:39:28.882Z,22.90
2023-05-01T13:41:56.340Z,22.90
2023-05-01T13:44:24.123Z,22.90
2023-05-01T13:46:51.660Z,22.91
2023-05-01T13:49:21.764Z,22.90
2023-05-01T13:51:49.533Z,22.93
2023-05-01T13:54:16.983Z,22.97
2023-05-01T13:56:44.413Z,22.97
2023-05-01T13:59:12.182Z,22.98
2023-05-01T14:01:42.693Z,23.02
2023-05-01T14:04:11.578Z,23.03
2023-05-01T14:06:42.152Z,23.07
2023-05-01T14:09:09.909Z,23.09
2023-05-01T14:11:42.801Z,23.12
2023-05-01T14:14:17.152Z,23.14
2023-05-01T14:16:51.065Z,23.16
2023-05-01T14:19:18.875Z,23.20
2023-05-01T14:21:46.979Z,23.21
2023-05-01T14:24:16.076Z,23.22
2023-05-01T14:26:45.104Z,23.24
2023-05-01T14:29:22.720Z,23.27
2023-05-01T14:31:51.192Z,23.26
2023-05-01T14:34:19.650Z,23.30
2023-05-01T14:36:47.353Z,23.30
2023-05-01T14:39:15.808Z,23.31
2023-05-01T14:41:43.303Z,23.33
2023-05-01T14:44:12.684Z,23.34
2023-05-01T14:46:46.367Z,23.36
2023-05-01T14:49:21.632Z,23.36
2023-05-01T14:51:49.366Z,23.38
2023-05-01T14:54:17.043Z,23.39
2023-05-01T14:56:44.846Z,23.40
2023-05-01T14:59:12.713Z,23.40
2023-05-01T15:01:40.446Z,23.42
2023-05-01T15:04:08.473Z,23.45
2023-05-01T15:06:36.340Z,23.46
2023-05-01T15:09:05.187Z,23.45
2023-05-01T15:11:32.682Z,23.43
2023-05-01T15:14:00.374Z,23.45
2023-05-01T15:16:27.905Z,23.46
2023-05-01T15:19:04.368Z,23.46
2023-05-01T15:21:35.843Z,23.46
2023-05-01T15:24:04.512Z,23.48
2023-05-01T15:26:32.220Z,23.47
2023-05-01T15:28:59.655Z,23.47
2023-05-01T15:31:27.098Z,23.46
2023-05-01T15:33:54.863Z,23.46
2023-05-01T15:36:22.377Z,23.46
2023-05-01T15:38:49.760Z,23.47
2023-05-01T15:41:18.998Z,23.45
2023-05-01T15:43:46.749Z,23.45
2023-05-01T15:46:15.343Z,23.45
2023-05-01T15:48:43.190Z,23.46
2023-05-01T15:51:10.672Z,23.44
2023-05-01T15:53:38.065Z,23.44
2023-05-01T15:56:06.003Z,23.43
2023-05-01T15:58:33.406Z,23.42
2023-05-01T16:01:00.818Z,23.42
2023-05-01T16:03:29.248Z,23.40
2023-05-01T16:05:57.694Z,23.40
2023-05-01T16:08:25.144Z,23.40
2023-05-01T16:10:53.869Z,23.40
2023-05-01T16:13:21.363Z,23.41
2023-05-01T16:15:49.140Z,23.41
2023-05-01T16:18:20.891Z,23.40
2023-05-01T16:20:48.336Z,23.41
2023-05-01T16:23:15.853Z,23.40
2023-05-01T16:25:43.665Z,23.40
2023-05-01T16:28:11.990Z,23.40
2023-05-01T16:30:42.533Z,23.40
2023-05-01T16:33:20.578Z,23.40
2023-05-01T16:35:50.762Z,23.42
2023-05-01T16:38:18.693Z,23.41
2023-05-01T16:40:47.150Z,23.41
2023-05-01T16:43:14.596Z,23.42
2023-05-01T16:45:42.313Z,23.41
2023-05-01T16:48:09.914Z,23.41
2023-05-01T16:50:57.633Z,23.42
2023-05-01T16:53:25.528Z,23.41
2023-05-01T16:55:53.241Z,23.42
2023-05-01T16:58:20.671Z,23.42
2023-05-01T17:00:48.611Z,23.42
2023-05-01T17:03:16.223Z,23.42
2023-05-01T17:05:43.709Z,23.42
2023-05-01T17:08:11.733Z,23.42
2023-05-01T17:10:39.140Z,23.42
2023-05-01T17:13:07.766Z,23.42
2023-05-01T17:15:35.548Z,23.41
2023-05-01T17:18:03.486Z,23.42
2023-05-01T17:20:31.044Z,23.42
2023-05-01T17:22:58.873Z,23.42
2023-05-01T17:25:26.322Z,23.42
2023-05-01T17:27:54.761Z,23.43
2023-05-01T17:30:22.864Z,23.41
2023-05-01T17:32:50.534Z,23.44
2023-05-01T17:35:18.238Z,23.45
2023-05-01T17:37:45.988Z,23.46
2023-05-01T17:40:13.757Z,23.46
2023-05-01T17:42:41.929Z,23.47
2023-05-01T17:45:10.700Z,23.47
2023-05-01T17:47:42.763Z,23.48
2023-05-01T17:50:12.022Z,23.50
2023-05-01T17:52:40.775Z,23.51
2023-05-01T17:55:10.040Z,23.52
2023-05-01T17:57:40.987Z,23.53
2023-05-01T18:00:09.699Z,23.54
2023-05-01T18:02:39.888Z,23.55
2023-05-01T18:05:10.199Z,23.56
2023-05-01T18:07:37.624Z,23.56
2023-05-01T18:10:05.465Z,23.58
2023-05-01T18:12:33.599Z,23.58
2023-05-01T18:15:01.574Z,23.58
2023-05-01T18:17:29.391Z,23.59
2023-05-01T18:19:57.752Z,23.59
2023-05-01T18:22:25.650Z,23.60
2023-05-01T18:24:53.318Z,23.63
2023-05-01T18:27:22.002Z,23.62
2023-05-01T18:29:49.633Z,23.65
2023-05-01T18:32:17.876Z,23.65
2023-05-01T18:34:46.307Z,23.66
2023-05-01T18:37:14.973Z,23.67
2023-05-01T18:39:43.496Z,23.67
2023-05-01T18:42:12.353Z,23.69
2023-05-01T18:44:40.056Z,23.69
2023-05-01T18:47:07.657Z,23.68
2023-05-01T18:49:36.106Z,23.67
2023-05-01T18:52:04.266Z,23.67
2023-05-01T18:54:32.339Z,23.68
2023-05-01T18:57:00.836Z,23.68
2023-05-01T18:59:31.325Z,23.68
2023-05-01T19:02:01.408Z,23.67
2023-05-01T19:04:31.531Z,23.77
2023-05-01T19:07:00.327Z,23.73
2023-05-01T19:09:28.667Z,23.70
2023-05-01T19:11:57.062Z,23.67
2023-05-01T19:14:25.446Z,23.68
2023-05-01T19:16:53.839Z,23.68
2023-05-01T19:19:22.745Z,23.68
2023-05-01T19:21:51.668Z,23.68
2023-05-01T19:24:19.485Z,23.68
2023-05-01T19:26:47.603Z,23.67
2023-05-01T19:29:18.085Z,23.68
2023-05-01T19:31:45.936Z,23.70
2023-05-01T19:34:15.545Z,23.79
2023-05-01T19:36:43.473Z,23.73
2023-05-01T19:39:15.070Z,23.71
2023-05-01T19:41:44.895Z,23.70
2023-05-01T19:44:14.001Z,23.70
2023-05-01T19:46:41.759Z,23.79
2023-05-01T19:49:13.333Z,23.71
2023-05-01T19:51:41.613Z,23.68
2023-05-01T19:54:10.009Z,23.68
2023-05-01T19:56:39.066Z,23.70
2023-05-01T19:59:08.829Z,23.73
2023-05-01T20:01:37.349Z,23.73
2023-05-01T20:04:05.921Z,23.74
2023-05-01T20:06:33.519Z,23.75
2023-05-01T20:09:01.413Z,23.74
2023-05-01T20:11:29.724Z,23.74
2023-05-01T20:14:00.623Z,23.73
2023-05-01T20:16:28.741Z,23.73
2023-05-01T20:18:58.678Z,23.72
2023-05-01T20:21:27.796Z,23.73
2023-05-01T20:23:57.630Z,23.71
2023-05-01T20:26:25.774Z,23.71
2023-05-01T20:28:53.680Z,23.70
2023-05-01T20:31:21.602Z,23.68
2023-05-01T20:33:49.172Z,23.67
2023-05-01T20:36:18.284Z,23.66
2023-05-01T20:38:47.577Z,23.65
2023-05-01T20:41:15.403Z,23.64
2023-05-01T20:43:43.378Z,23.64
2023-05-01T20:46:11.498Z,23.63
2023-05-01T20:48:39.466Z,23.64
2023-05-01T20:51:06.840Z,23.62
2023-05-01T20:53:34.588Z,23.61
2023-05-01T20:56:02.383Z,23.62
2023-05-01T20:58:29.790Z,23.61
2023-05-01T21:00:58.350Z,23.59
2023-05-01T21:03:25.799Z,23.59
2023-05-01T21:05:57.794Z,23.59
2023-05-01T21:08:27.039Z,23.58
2023-05-01T21:10:54.605Z,23.58
2023-05-01T21:13:23.550Z,23.58
2023-05-01T21:15:52.104Z,23.58
2023-05-01T21:18:22.398Z,23.58
2023-05-01T21:20:49.911Z,23.57
2023-05-01T21:23:17.772Z,23.58
2023-05-01T21:25:45.268Z,23.56
2023-05-01T21:28:13.197Z,23.57
2023-05-01T21:30:40.906Z,23.56
2023-05-01T21:33:12.270Z,23.57
2023-05-01T21:35:42.784Z,23.57
2023-05-01T21:38:11.532Z,23.56
2023-05-01T21:40:41.151Z,23.55
2023-05-01T21:43:09.031Z,23.55
2023-05-01T21:45:40.587Z,23.55
2023-05-01T21:48:09.468Z,23.53
2023-05-01T21:50:38.175Z,23.52
2023-05-01T21:53:08.472Z,23.51
2023-05-01T21:55:36.006Z,23.50
2023-05-01T21:58:04.082Z,23.49
2023-05-01T22:00:31.878Z,23.49
2023-05-01T22:03:07.240Z,23.47
2023-05-01T22:05:34.781Z,23.47
2023-05-01T22:08:02.691Z,23.45
2023-05-01T22:10:30.091Z,23.43
2023-05-01T22:12:57.478Z,23.42
2023-05-01T22:15:25.212Z,23.43
2023-05-01T22:17:52.694Z,23.41
2023-05-01T22:20:20.164Z,23.40
2023-05-01T22:22:47.933Z,23.40
2023-05-01T22:25:16.654Z,23.39
2023-05-01T22:27:44.093Z,23.39
2023-05-01T22:30:12.124Z,23.38
2023-05-01T22:32:39.608Z,23.38
2023-05-01T22:35:08.825Z,23.36
2023-05-01T22:37:36.681Z,23.36
2023-05-01T22:40:05.636Z,23.36
2023-05-01T22:42:32.986Z,23.35
2023-05-01T22:45:00.657Z,23.34
2023-05-01T22:47:28.082Z,23.34
2023-05-01T22:49:55.527Z,23.34
2023-05-01T22:52:23.188Z,23.33
2023-05-01T22:54:52.547Z,23.33
2023-05-01T22:57:19.945Z,23.32
2023-05-01T22:59:48.361Z,23.32
2023-05-01T23:02:16.305Z,23.30
2023-05-01T23:04:44.168Z,23.31
2023-05-01T23:07:14.885Z,23.28
2023-05-01T23:09:42.327Z,23.27
2023-05-01T23:12:14.840Z,23.28
2023-05-01T23:14:42.527Z,23.27
2023-05-01T23:17:09.936Z,23.27
2023-05-01T23:19:37.944Z,23.27
2023-05-01T23:22:09.655Z,23.26
2023-05-01T23:24:44.812Z,23.26
2023-05-01T23:27:13.557Z,23.26
2023-05-01T23:29:41.046Z,23.25
2023-05-01T23:32:10.626Z,23.25
2023-05-01T23:34:38.687Z,23.24
2023-05-01T23:37:06.851Z,23.23
2023-05-01T23:39:34.247Z,23.23
2023-05-01T23:42:02.530Z,23.22
2023-05-01T23:44:30.459Z,23.23
2023-05-01T23:46:57.950Z,23.23
2023-05-01T23:49:25.707Z,23.22
2023-05-01T23:51:53.336Z,23.21
2023-05-01T23:54:20.715Z,23.22
2023-05-01T23:56:48.390Z,23.21
2023-05-01T23:59:15.882Z,23.20
